Time;durP1;ratioP1;P1;durP2;ratioP2;P2;SDS_P1;SDS_P2;PMS_P1;PMS_P2;Temp;Humidity;BMP_temperature;BMP_pressure;BME280_temperature;BME280_humidity;BME280_pressure;Samples;Min_cycle;Max_cycle;Signal;HPM_P1;HPM_P2
2022/06/24 00:02:11;;;;;;;3.20;2.53;;;;;;;17.14;100.00;63770.13;5054927;28;20208;-81
2022/06/24 00:04:39;;;;;;;5.20;2.60;;;;;;;17.14;100.00;63774.75;5050776;28;20225;-82
2022/06/24 00:07:15;;;;;;;2.70;2.50;;;;;;;17.11;100.00;63769.06;5050955;28;20243;-81
2022/06/24 00:09:44;;;;;;;2.63;2.53;;;;;;;17.19;100.00;63780.47;5050698;28;20248;-81
2022/06/24 00:12:13;;;;;;;3.03;2.75;;;;;;;17.19;100.00;63772.75;5050348;28;20232;-81
2022/06/24 00:14:41;;;;;;;4.55;2.75;;;;;;;17.33;100.00;63789.38;5051213;28;20269;-80
2022/06/24 00:17:10;;;;;;;2.25;2.05;;;;;;;17.48;100.00;63801.91;5050539;28;20205;-81
2022/06/24 00:19:52;;;;;;;3.00;2.58;;;;;;;17.50;100.00;63806.59;5052451;28;20259;-82
2022/06/24 00:22:20;;;;;;;3.38;1.90;;;;;;;17.55;100.00;63817.44;5051051;28;20207;-81
2022/06/24 00:24:48;;;;;;;2.25;2.03;;;;;;;17.58;100.00;63812.34;5052574;28;20240;-81
2022/06/24 00:27:20;;;;;;;2.30;2.20;;;;;;;17.55;100.00;63814.38;5051789;28;20201;-81
2022/06/24 00:29:47;;;;;;;4.80;2.45;;;;;;;17.50;100.00;63811.72;5052248;28;20222;-81
2022/06/24 00:32:15;;;;;;;2.15;1.98;;;;;;;17.48;100.00;63805.00;5049472;28;20194;-81
2022/06/24 00:34:43;;;;;;;4.70;2.53;;;;;;;17.47;100.00;63803.44;5050430;28;20426;-81
2022/06/24 00:37:23;;;;;;;2.97;2.22;;;;;;;17.41;100.00;63802.34;5052815;28;20194;-81
2022/06/24 00:39:52;;;;;;;7.38;3.33;;;;;;;17.36;100.00;63794.56;5050203;28;20439;-81
2022/06/24 00:42:20;;;;;;;4.30;2.75;;;;;;;17.39;100.00;63797.69;5049104;28;20498;-81
2022/06/24 00:44:51;;;;;;;4.20;3.75;;;;;;;17.46;100.00;63802.41;5050227;28;20217;-81
2022/06/24 00:47:18;;;;;;;4.15;3.75;;;;;;;17.41;100.00;63800.28;5050204;28;20498;-82
2022/06/24 00:49:48;;;;;;;5.20;3.40;;;;;;;17.38;100.00;63794.56;5049758;28;20280;-81
2022/06/24 00:52:15;;;;;;;4.90;4.18;;;;;;;17.37;100.00;63793.00;5049366;28;20198;-82
2022/06/24 00:54:44;;;;;;;5.45;4.95;;;;;;;17.41;100.00;63799.75;5050823;28;20229;-82
2022/06/24 00:57:13;;;;;;;5.68;5.28;;;;;;;17.33;100.00;63792.47;5051026;28;20261;-82
2022/06/24 00:59:42;;;;;;;5.45;4.40;;;;;;;17.41;100.00;63799.75;5049772;28;20276;-79
2022/06/24 01:02:11;;;;;;;5.43;4.93;;;;;;;17.44;100.00;63795.69;5049606;28;20196;-81
2022/06/24 01:04:37;;;;;;;4.60;3.95;;;;;;;17.41;100.00;63802.88;5048935;28;20235;-82
2022/06/24 01:07:05;;;;;;;4.45;3.58;;;;;;;17.46;100.00;63807.53;5050959;28;20268;-82
2022/06/24 01:09:32;;;;;;;5.88;3.30;;;;;;;17.37;100.00;63793.53;5045546;28;20234;-82
2022/06/24 01:11:59;;;;;;;3.30;3.10;;;;;;;17.34;100.00;63793.50;5048752;28;20201;-81
2022/06/24 01:14:27;;;;;;;2.88;2.67;;;;;;;17.41;100.00;63797.72;5050116;28;20560;-82
2022/06/24 01:16:54;;;;;;;4.53;3.00;;;;;;;17.38;100.00;63796.66;5048799;28;20198;-82
2022/06/24 01:19:21;;;;;;;3.00;2.80;;;;;;;17.54;100.00;63808.69;5046894;28;20209;-81
2022/06/24 01:21:50;;;;;;;3.30;3.10;;;;;;;17.57;100.00;63816.44;5051064;28;20220;-82
2022/06/24 01:24:18;;;;;;;5.60;3.97;;;;;;;17.69;100.00;63826.38;5052167;28;20225;-81
2022/06/24 01:26:48;;;;;;;4.50;4.10;;;;;;;17.68;100.00;63827.91;5051141;28;20185;-80
2022/06/24 01:29:16;;;;;;;5.55;5.05;;;;;;;17.57;100.00;63819.53;5033107;28;20198;-81
2022/06/24 01:31:43;;;;;;;4.97;4.47;;;;;;;17.49;100.00;63808.09;5047801;28;20205;-82
2022/06/24 01:34:10;;;;;;;5.10;4.53;;;;;;;17.45;100.00;63806.50;5045027;28;20213;-82
2022/06/24 01:36:38;;;;;;;4.60;4.25;;;;;;;17.45;100.00;63803.94;5048362;28;20249;-81
2022/06/24 01:39:06;;;;;;;4.18;3.88;;;;;;;17.37;100.00;63798.16;5048608;28;20197;-81
2022/06/24 01:41:33;;;;;;;3.60;3.30;;;;;;;17.41;100.00;63800.28;5049730;28;20202;-81
2022/06/24 01:44:01;;;;;;;5.40;3.83;;;;;;;17.51;100.00;63805.56;5048158;28;20225;-81
2022/06/24 01:46:28;;;;;;;5.35;4.10;;;;;;;17.47;100.00;63806.53;5047739;28;20217;-81
2022/06/24 01:48:55;;;;;;;7.20;4.57;;;;;;;17.28;100.00;63784.16;5048070;28;20486;-82
2022/06/24 01:51:24;;;;;;;4.78;4.38;;;;;;;17.40;100.00;63791.50;5049109;28;20279;-82
2022/06/24 01:53:51;;;;;;;3.75;3.45;;;;;;;17.35;100.00;63791.47;5048637;28;20554;-81
2022/06/24 01:56:20;;;;;;;5.85;4.43;;;;;;;17.21;100.00;63777.41;5048131;28;20213;-82
2022/06/24 01:58:47;;;;;;;4.72;4.43;;;;;;;17.13;100.00;63771.13;5048989;28;20194;-81
2022/06/24 02:01:14;;;;;;;4.22;3.90;;;;;;;17.11;100.00;63766.47;5047424;28;20226;-82
2022/06/24 02:03:41;;;;;;;3.97;3.63;;;;;;;16.70;100.00;63724.34;5048094;28;20220;-80
2022/06/24 02:06:09;;;;;;;4.13;3.30;;;;;;;16.90;100.00;63750.28;5047893;28;20380;-81
2022/06/24 02:08:36;;;;;;;4.50;3.10;;;;;;;16.82;100.00;63736.81;5047036;28;20264;-82
2022/06/24 02:13:51;;;;;;;3.58;3.38;;;;;;;16.68;100.00;63724.81;5067938;28;20231;-81
2022/06/24 02:16:20;;;;;;;4.90;4.15;;;;;;;16.64;100.00;63717.56;5067130;28;20228;-82
2022/06/24 02:18:47;;;;;;;3.78;3.38;;;;;;;16.53;100.00;63711.25;5053189;28;20205;-81
2022/06/24 02:21:14;;;;;;;4.50;3.90;;;;;;;16.51;100.00;63704.56;5048692;28;20217;-81
2022/06/24 02:23:42;;;;;;;3.72;3.42;;;;;;;16.57;100.00;63707.69;5049621;28;20247;-81
2022/06/24 02:26:10;;;;;;;5.13;3.40;;;;;;;16.55;100.00;63713.84;5048467;28;20255;-82
2022/06/24 02:28:37;;;;;;;3.45;3.15;;;;;;;16.55;100.00;63711.28;5047814;28;20208;-82
2022/06/24 02:31:07;;;;;;;5.57;2.70;;;;;;;16.51;100.00;63704.03;5046246;28;20221;-82
2022/06/24 02:33:34;;;;;;;4.70;3.25;;;;;;;16.49;100.00;63704.53;5046957;28;20190;-82
2022/06/24 02:36:01;;;;;;;3.67;3.00;;;;;;;16.48;100.00;63698.84;5048852;28;20228;-81
2022/06/24 02:38:28;;;;;;;3.20;2.95;;;;;;;16.46;100.00;63704.50;5046814;28;20220;-81
2022/06/24 02:40:55;;;;;;;33.10;19.80;;;;;;;16.54;100.00;63712.81;5047167;28;20466;-81
2022/06/24 02:43:24;;;;;;;8.10;5.22;;;;;;;16.56;100.00;63711.81;5047173;28;20252;-81
2022/06/24 02:45:53;;;;;;;11.23;10.05;;;;;;;16.49;100.00;63702.47;5046739;28;20233;-82
2022/06/24 02:48:23;;;;;;;28.17;18.95;;;;;;;16.55;100.00;63715.91;5046394;28;20380;-81
2022/06/24 02:50:51;;;;;;;3.00;2.75;;;;;;;16.55;100.00;63708.22;5046372;28;20214;-82
2022/06/24 02:53:19;;;;;;;4.07;3.03;;;;;;;16.61;100.00;63717.53;5044648;28;20209;-81
2022/06/24 02:55:48;;;;;;;6.65;3.10;;;;;;;16.64;100.00;63723.22;5043492;28;20229;-81
2022/06/24 02:58:16;;;;;;;3.30;2.95;;;;;;;16.72;100.00;63725.91;5045179;28;20194;-81
2022/06/24 03:00:43;;;;;;;5.03;3.45;;;;;;;16.84;100.00;63738.88;5048072;28;20217;-82
2022/06/24 03:03:11;;;;;;;4.82;3.03;;;;;;;16.94;100.00;63751.34;5048179;28;20220;-82
2022/06/24 03:05:39;;;;;;;4.35;3.53;;;;;;;17.06;100.00;63758.69;5066940;28;20223;-82
2022/06/24 03:08:07;;;;;;;21.88;16.48;;;;;;;17.11;100.00;63766.47;5067572;28;20493;-81
2022/06/24 03:10:34;;;;;;;16.92;12.52;;;;;;;17.19;100.00;63777.38;5067861;28;20216;-81
2022/06/24 03:13:02;;;;;;;3.58;3.10;;;;;;;17.27;100.00;63785.72;5054670;28;20224;-81
2022/06/24 03:15:30;;;;;;;3.47;3.17;;;;;;;17.30;100.00;63789.34;5047905;28;20240;-81
2022/06/24 03:17:57;;;;;;;3.95;3.50;;;;;;;17.43;100.00;63801.84;5047999;28;20237;-81
2022/06/24 03:20:24;;;;;;;3.08;2.88;;;;;;;17.48;100.00;63804.50;5049786;28;20228;-81
2022/06/24 03:22:52;;;;;;;4.68;3.67;;;;;;;17.51;100.00;63808.16;5048565;28;20194;-81
2022/06/24 03:25:19;;;;;;;4.72;3.83;;;;;;;17.67;100.00;63826.84;5048810;28;20264;-82
2022/06/24 03:27:46;;;;;;;77.65;46.13;;;;;;;17.75;100.00;63832.59;5050203;28;20203;-82
2022/06/24 03:30:14;;;;;;;9.18;6.88;;;;;;;17.82;100.00;63842.47;5059048;28;20212;-81
2022/06/24 03:32:41;;;;;;;6.15;4.88;;;;;;;17.69;100.00;63826.38;5048726;28;20201;-82
2022/06/24 03:35:09;;;;;;;6.68;5.00;;;;;;;17.68;100.00;63825.31;5052192;28;20221;-82
2022/06/24 03:37:36;;;;;;;5.55;5.05;;;;;;;17.76;100.00;63834.16;5048762;28;20200;-80
2022/06/24 03:40:06;;;;;;;6.95;5.38;;;;;;;17.89;100.00;63844.63;5046574;28;20297;-81
2022/06/24 03:42:33;;;;;;;6.95;5.15;;;;;;;17.93;100.00;63851.38;5044264;28;20252;-82
2022/06/24 03:45:00;;;;;;;10.02;5.15;;;;;;;17.93;100.00;63854.44;5045094;28;20472;-82
2022/06/24 03:47:26;;;;;;;14.00;11.02;;;;;;;17.85;100.00;63843.03;5044770;28;20193;-82
2022/06/24 03:49:53;;;;;;;10.05;7.18;;;;;;;17.99;100.00;63860.72;5045523;28;20324;-81
2022/06/24 03:52:20;;;;;;;6.43;5.18;;;;;;;17.91;100.00;63851.84;5045832;28;20197;-82
2022/06/24 03:54:47;;;;;;;6.55;5.10;;;;;;;18.10;100.00;63869.56;5045601;28;20243;-81
2022/06/24 03:57:15;;;;;;;7.05;5.40;;;;;;;18.21;100.00;63885.69;5046203;28;20194;-80
2022/06/24 03:59:42;;;;;;;6.45;4.97;;;;;;;18.20;100.00;63879.47;5066342;28;20213;-81
2022/06/24 04:02:09;;;;;;;8.50;5.20;;;;;;;18.28;100.00;63888.34;5065644;28;20436;-81
2022/06/24 04:04:36;;;;;;;5.63;4.30;;;;;;;18.35;100.00;63897.69;5066916;28;20232;-82
2022/06/24 04:07:04;;;;;;;5.43;4.63;;;;;;;18.42;100.00;63905.53;5056056;28;20193;-81
2022/06/24 04:09:31;;;;;;;6.03;4.45;;;;;;;18.31;100.00;63891.47;5049908;28;20380;-81
2022/06/24 04:11:58;;;;;;;6.68;6.07;;;;;;;18.23;100.00;63885.19;5064333;28;20212;-81
2022/06/24 04:17:14;;;;;;;8.75;7.90;;;;;;;18.15;100.00;63872.22;5052077;28;20220;-81
2022/06/24 04:19:40;;;;;;;9.30;7.57;;;;;;;18.12;100.00;63873.72;5051749;28;20307;-82
2022/06/24 04:22:07;;;;;;;7.82;7.00;;;;;;;18.27;100.00;63892.44;5051475;28;20197;-81
2022/06/24 04:24:34;;;;;;;9.30;7.55;;;;;;;18.48;100.00;63911.25;5050259;28;20233;-82
2022/06/24 04:27:01;;;;;;;7.53;6.53;;;;;;;18.57;100.00;63920.63;5048992;28;20212;-82
2022/06/24 04:29:29;;;;;;;7.88;7.05;;;;;;;18.26;100.00;63885.72;5049476;28;20271;-82
2022/06/24 04:31:56;;;;;;;10.88;6.47;;;;;;;18.04;100.00;63865.38;5049314;28;20193;-81
2022/06/24 04:34:23;;;;;;;9.00;6.82;;;;;;;17.81;100.00;63841.44;5050265;28;20224;-81
2022/06/24 04:36:49;;;;;;;9.57;8.57;;;;;;;17.65;100.00;63827.34;5052228;28;20205;-80
2022/06/24 04:39:17;;;;;;;12.52;9.05;;;;;;;17.62;100.00;63821.66;5049635;28;20304;-84
2022/06/24 04:41:44;;;;;;;13.35;8.75;;;;;;;17.58;100.00;63814.91;5049822;28;20232;-81
2022/06/24 04:44:11;;;;;;;12.95;9.73;;;;;;;17.29;100.00;63787.78;5049703;28;20229;-80
2022/06/24 04:46:39;;;;;;;12.88;8.48;;;;;;;17.16;100.00;63771.69;5050360;28;20198;-82
2022/06/24 04:49:05;;;;;;;18.80;7.85;;;;;;;17.34;100.00;63790.94;5050063;28;20197;-82
2022/06/24 04:51:32;;;;;;;13.02;7.60;;;;;;;17.60;100.00;63814.41;5048765;28;20446;-82
2022/06/24 04:53:59;;;;;;;10.77;7.32;;;;;;;17.77;100.00;63839.84;5050456;28;20352;-81
2022/06/24 04:56:26;;;;;;;10.02;7.68;;;;;;;18.09;100.00;63873.69;5050527;28;20249;-82
2022/06/24 04:58:53;;;;;;;10.43;8.43;;;;;;;18.16;100.00;63875.31;5051521;28;20206;-82
2022/06/24 05:01:20;;;;;;;10.43;7.88;;;;;;;18.39;100.00;63899.81;5059810;28;20583;-83
2022/06/24 05:03:49;;;;;;;11.35;7.55;;;;;;;18.25;100.00;63887.78;5069904;28;20196;-82
2022/06/24 05:06:15;;;;;;;11.02;8.75;;;;;;;18.23;100.00;63883.13;5069637;28;20280;-81
2022/06/24 05:08:43;;;;;;;11.55;8.48;;;;;;;18.30;100.00;63887.84;5069114;28;20447;-82
2022/06/24 05:11:12;;;;;;;10.13;8.18;;;;;;;18.53;100.00;63913.91;5059748;28;20217;-82
2022/06/24 05:13:39;;;;;;;12.85;8.20;;;;;;;18.74;100.00;63938.34;5069514;28;20205;-82
2022/06/24 05:16:06;;;;;;;11.48;7.93;;;;;;;18.83;100.00;63947.19;5069849;28;20437;-82
2022/06/24 05:18:33;;;;;;;14.23;9.30;;;;;;;18.70;100.00;63929.03;5064076;28;20209;-81
2022/06/24 05:21:02;;;;;;;14.27;9.88;;;;;;;18.61;100.00;63921.69;5049476;28;20217;-81
2022/06/24 05:23:28;;;;;;;12.52;9.73;;;;;;;18.35;100.00;63895.63;5049761;28;20200;-82
2022/06/24 05:25:55;;;;;;;12.00;9.82;;;;;;;18.48;100.00;63908.69;5050953;28;20237;-81
2022/06/24 05:28:22;;;;;;;13.40;10.38;;;;;;;18.46;100.00;63908.66;5050474;28;20213;-80
2022/06/24 05:30:55;;;;;;;11.00;9.40;;;;;;;18.35;100.00;63895.09;5050183;28;20229;-82
2022/06/24 05:33:22;;;;;;;16.92;10.52;;;;;;;18.46;100.00;63906.59;5050398;28;20213;-83
2022/06/24 05:35:52;;;;;;;15.10;10.68;;;;;;;18.71;100.00;63929.53;5050657;28;20221;-82
2022/06/24 05:38:22;;;;;;;15.68;10.80;;;;;;;18.95;100.00;63955.06;5050428;28;20201;-82
2022/06/24 05:40:49;;;;;;;22.65;12.13;;;;;;;18.86;100.00;63950.34;5048598;28;20516;-81
2022/06/24 05:43:17;;;;;;;15.35;10.85;;;;;;;18.68;100.00;63931.56;5049177;28;20225;-81
2022/06/24 05:45:43;;;;;;;16.70;9.43;;;;;;;18.55;100.00;63921.13;5049281;28;20233;-81
2022/06/24 05:48:10;;;;;;;13.02;10.70;;;;;;;18.59;100.00;63917.03;5049547;28;20194;-81
2022/06/24 05:50:38;;;;;;;15.48;10.43;;;;;;;18.86;100.00;63948.28;5049827;28;20231;-80
2022/06/24 05:55:51;;;;;;;13.90;9.63;;;;;;;19.14;100.00;63979.53;5059394;28;20255;-81
2022/06/24 05:58:18;;;;;;;10.98;9.02;;;;;;;19.50;100.00;64017.09;5051538;28;20394;-82
2022/06/24 06:00:45;;;;;;;11.52;8.43;;;;;;;19.78;100.00;64041.13;5048838;28;20229;-82
2022/06/24 06:03:12;;;;;;;9.05;8.23;;;;;;;19.97;100.00;64065.59;5047659;28;20202;-81
2022/06/24 06:05:38;;;;;;;8.60;7.72;;;;;;;19.87;100.00;64060.84;5047813;28;20291;-81
2022/06/24 06:08:08;;;;;;;6.22;5.65;;;;;;;19.25;100.00;63988.41;5048058;28;20289;-81
2022/06/24 06:10:36;;;;;;;11.23;6.32;;;;;;;19.12;100.00;63974.88;5047573;28;20213;-81
2022/06/24 06:13:04;;;;;;;8.98;6.32;;;;;;;19.20;100.00;63988.91;5042707;28;20213;-82
2022/06/24 06:15:31;;;;;;;8.18;7.28;;;;;;;19.18;100.00;63984.22;5050787;28;20534;-81
2022/06/24 06:18:01;;;;;;;7.70;6.68;;;;;;;19.35;100.00;63996.81;5050180;28;20268;-81
2022/06/24 06:20:28;;;;;;;9.02;6.43;;;;;;;19.82;100.00;64050.47;5050086;28;20225;-81
2022/06/24 06:22:55;;;;;;;6.18;5.70;;;;;;;20.21;100.00;64090.66;5050903;28;20208;-81
2022/06/24 06:25:24;;;;;;;8.30;6.13;;;;;;;20.40;100.00;64110.47;5052243;28;20237;-81
2022/06/24 06:27:52;;;;;;;6.05;5.55;;;;;;;20.34;100.00;64104.75;5051704;28;20193;-82
2022/06/24 06:30:20;;;;;;;7.32;5.60;;;;;;;20.09;100.00;64075.53;5052717;28;20217;-80
2022/06/24 06:32:47;;;;;;;6.65;5.95;;;;;;;20.16;100.00;64085.44;5052891;28;20201;-82
2022/06/24 06:35:14;;;;;;;5.63;5.13;;;;;;;19.92;100.00;64060.38;5052501;28;20227;-80
2022/06/24 06:37:42;;;;;;;5.18;4.70;;;;;;;19.61;100.00;64028.56;5049554;28;20201;-81
2022/06/24 06:40:09;;;;;;;5.28;4.90;;;;;;;19.68;100.00;64032.75;5045248;28;20221;-80
2022/06/24 06:42:36;;;;;;;7.07;4.75;;;;;;;19.77;100.00;64047.31;5046538;28;20293;-80
2022/06/24 06:45:05;;;;;;;6.13;4.85;;;;;;;19.85;100.00;64055.66;5048692;28;20233;-80
2022/06/24 06:47:35;;;;;;;4.88;4.50;;;;;;;19.89;100.00;64054.66;5053355;28;20564;-81
2022/06/24 06:50:04;;;;;;;6.53;5.90;;;;;;;20.01;100.00;64070.28;5063979;28;20225;-81
2022/06/24 06:52:41;;;;;;;5.72;4.57;;;;;;;20.14;100.00;64083.84;5075345;28;20196;-82
2022/06/24 06:55:08;;;;;;;5.60;5.10;;;;;;;20.13;100.00;64080.22;5073008;28;20216;-79
2022/06/24 06:57:35;;;;;;;4.60;4.30;;;;;;;20.27;100.00;64096.91;5054789;28;20206;-81
2022/06/24 07:00:03;;;;;;;6.10;4.78;;;;;;;20.38;100.00;64108.41;5050609;28;20228;-80
2022/06/24 07:02:30;;;;;;;5.20;4.70;;;;;;;20.23;100.00;64090.69;5049016;28;20268;-80
2022/06/24 07:04:59;;;;;;;5.57;4.38;;;;;;;20.29;99.26;64096.94;5048244;28;20267;-79
2022/06/24 07:07:26;;;;;;;9.32;4.32;;;;;;;20.43;97.50;64111.03;5045747;28;20205;-81
2022/06/24 07:09:54;;;;;;;7.80;4.18;;;;;;;20.74;91.67;64145.47;5047513;28;20217;-83
2022/06/24 07:12:21;;;;;;;4.53;4.13;;;;;;;20.35;92.61;64108.38;5047251;28;20197;-81
2022/06/24 07:14:48;;;;;;;4.00;3.80;;;;;;;20.55;94.01;64126.66;5028214;28;20229;-82
2022/06/24 07:17:16;;;;;;;5.35;4.40;;;;;;;20.53;99.29;64127.19;5036774;28;20205;-83
2022/06/24 07:19:43;;;;;;;4.35;4.03;;;;;;;20.81;88.47;64152.78;5047538;28;20225;-82
2022/06/24 07:22:11;;;;;;;5.05;3.63;;;;;;;20.86;89.58;64158.00;5034193;28;20275;-82
2022/06/24 07:24:38;;;;;;;4.88;4.40;;;;;;;21.22;91.45;64198.72;5047029;28;20233;-82
2022/06/24 07:27:07;;;;;;;5.45;4.30;;;;;;;21.27;95.01;64200.81;5029252;28;20200;-81
2022/06/24 07:29:34;;;;;;;5.80;4.15;;;;;;;21.12;93.74;64185.66;5028165;28;20252;-81
2022/06/24 07:32:02;;;;;;;6.50;4.53;;;;;;;21.17;92.31;64188.31;5046754;28;20201;-82
2022/06/24 07:34:31;;;;;;;4.47;4.13;;;;;;;21.22;92.58;64195.59;5044090;28;20226;-82
2022/06/24 07:36:58;;;;;;;6.03;4.18;;;;;;;21.30;90.00;64207.06;5046866;28;20247;-82
2022/06/24 07:39:27;;;;;;;6.25;4.47;;;;;;;21.31;88.38;64207.59;5040828;28;20220;-80
2022/06/24 07:41:54;;;;;;;5.00;4.47;;;;;;;21.13;86.40;64191.91;5047616;28;20221;-82
2022/06/24 07:44:21;;;;;;;4.97;4.63;;;;;;;21.43;87.60;64217.53;5052062;28;20201;-82
2022/06/24 07:46:48;;;;;;;5.07;4.57;;;;;;;21.46;84.60;64216.00;5047624;28;20205;-80
2022/06/24 07:49:15;;;;;;;4.50;4.10;;;;;;;21.12;86.37;64185.66;5032895;28;20221;-81
2022/06/24 07:51:42;;;;;;;5.55;4.55;;;;;;;21.36;85.84;64205.03;5044229;28;20225;-80
2022/06/24 07:54:09;;;;;;;5.45;4.90;;;;;;;21.39;89.86;64210.75;5051184;28;20205;-80
2022/06/24 07:59:23;;;;;;;4.75;4.35;;;;;;;21.83;82.82;64261.41;5051937;28;20200;-81
2022/06/24 08:01:50;;;;;;;4.55;4.15;;;;;;;21.78;82.18;64257.22;5050292;28;20213;-81
2022/06/24 08:04:17;;;;;;;8.20;4.28;;;;;;;22.00;81.54;64276.59;5044932;28;20234;-80
2022/06/24 08:06:46;;;;;;;4.60;4.30;;;;;;;21.92;81.85;64270.81;5039611;28;20445;-80
2022/06/24 08:09:13;;;;;;;3.83;3.63;;;;;;;22.20;76.34;64300.59;5052534;28;20235;-80
2022/06/24 08:11:42;;;;;;;4.38;4.10;;;;;;;22.64;75.51;64341.41;5050729;28;20219;-81
2022/06/24 08:14:09;;;;;;;4.10;3.80;;;;;;;22.89;72.20;64367.03;5035560;28;20224;-81
2022/06/24 08:16:36;;;;;;;4.55;4.15;;;;;;;22.92;70.84;64370.16;5047983;28;21520;-79
2022/06/24 08:19:03;;;;;;;3.97;3.78;;;;;;;22.61;71.64;64338.28;5037222;28;20206;-80
2022/06/24 08:21:30;;;;;;;4.10;3.75;;;;;;;22.84;68.04;64361.81;5042965;28;20225;-81
2022/06/24 08:23:57;;;;;;;5.13;4.70;;;;;;;23.21;72.72;64400.50;5036119;28;20230;-80
2022/06/24 08:26:24;;;;;;;7.22;5.00;;;;;;;23.07;72.02;64393.66;5046930;28;20259;-80
2022/06/24 08:28:52;;;;;;;5.03;4.47;;;;;;;23.00;72.87;64378.03;5052901;28;20212;-80
2022/06/24 08:31:19;;;;;;;9.57;5.57;;;;;;;22.88;73.25;64371.19;5052269;28;20213;-80
2022/06/24 08:33:46;;;;;;;3.88;3.58;;;;;;;23.14;69.57;64393.19;5053048;28;20228;-81
2022/06/24 08:36:14;;;;;;;4.35;4.07;;;;;;;23.05;72.19;64383.78;5052800;28;20216;-80
2022/06/24 08:38:41;;;;;;;4.55;4.25;;;;;;;22.65;72.47;64347.13;5052101;28;20264;-80
2022/06/24 08:41:08;;;;;;;4.18;3.63;;;;;;;22.59;73.59;64340.88;5049729;28;20297;-80
2022/06/24 08:43:36;;;;;;;4.93;3.60;;;;;;;22.95;73.67;64375.91;5051518;28;20276;-79
2022/06/24 08:46:05;;;;;;;4.25;3.65;;;;;;;23.05;68.54;64391.03;5051450;28;20478;-81
2022/06/24 08:48:32;;;;;;;4.15;3.55;;;;;;;23.18;68.14;64397.38;5032060;28;20194;-78
2022/06/24 08:51:01;;;;;;;3.65;3.15;;;;;;;22.65;69.14;64347.66;5050736;28;20304;-81
2022/06/24 08:53:29;;;;;;;3.13;2.92;;;;;;;22.54;70.68;64333.03;5047796;28;20549;-79
2022/06/24 08:55:58;;;;;;;6.38;3.20;;;;;;;22.80;70.93;64360.75;5051634;28;20258;-80
2022/06/24 08:58:27;;;;;;;4.93;3.05;;;;;;;22.72;67.33;64355.00;5045429;28;20194;-80
2022/06/24 09:00:54;;;;;;;2.97;2.78;;;;;;;22.83;64.83;64360.78;5045865;28;20221;-78
2022/06/24 09:03:25;;;;;;;3.63;3.33;;;;;;;23.16;67.33;64400.47;5049690;28;20197;-80
2022/06/24 09:05:52;;;;;;;2.42;2.33;;;;;;;23.48;59.02;64433.44;5050299;28;20237;-80
2022/06/24 09:08:19;;;;;;;2.72;2.63;;;;;;;23.62;60.97;64445.50;5049162;28;20216;-80
2022/06/24 09:11:06;;;;;;;4.63;3.40;;;;;;;23.32;64.89;64414.09;5052991;28;20533;-80
2022/06/24 09:13:42;;;;;;;4.47;2.88;;;;;;;23.22;65.50;64403.63;5071211;28;20195;-80
2022/06/24 09:16:09;;;;;;;3.28;2.90;;;;;;;23.47;67.95;64427.72;5070092;28;20216;-81
2022/06/24 09:18:38;;;;;;;4.03;2.92;;;;;;;23.36;66.47;64413.09;5050683;28;20450;-80
2022/06/24 09:21:05;;;;;;;2.97;2.50;;;;;;;23.48;64.89;64431.38;5048089;28;20267;-81
2022/06/24 09:23:32;;;;;;;4.30;3.13;;;;;;;23.40;67.46;64417.28;5047175;28;20206;-80
2022/06/24 09:26:01;;;;;;;3.08;2.88;;;;;;;23.73;65.32;64454.94;5053503;28;20300;-79
2022/06/24 09:28:29;;;;;;;4.15;3.78;;;;;;;23.75;65.48;64462.22;5051813;28;20232;-80
2022/06/24 09:31:06;;;;;;;4.28;3.63;;;;;;;23.43;68.34;64425.63;5053798;28;20221;-81
2022/06/24 09:33:38;;;;;;;3.28;3.08;;;;;;;23.40;66.85;64425.59;5052966;28;21228;-80
2022/06/24 09:36:07;;;;;;;3.30;3.10;;;;;;;23.74;64.73;64460.66;5053881;28;20222;-80
2022/06/24 09:38:54;;;;;;;3.25;2.95;;;;;;;23.91;62.46;64478.44;5050998;28;20236;-80
2022/06/24 09:41:21;;;;;;;2.83;2.58;;;;;;;24.16;61.84;64496.81;5052756;28;20244;-80
2022/06/24 09:43:49;;;;;;;3.17;2.78;;;;;;;24.15;62.79;64495.25;5046787;28;20201;-79
2022/06/24 09:46:19;;;;;;;2.75;2.65;;;;;;;23.71;60.26;64454.91;5050080;28;20237;-79
2022/06/24 09:48:48;;;;;;;3.20;3.00;;;;;;;23.92;60.98;64479.47;5049627;28;20216;-80
2022/06/24 09:51:16;;;;;;;2.90;2.70;;;;;;;23.85;60.63;64472.69;5052315;28;20518;-80
2022/06/24 09:53:45;;;;;;;6.07;2.90;;;;;;;23.83;64.29;64464.88;5050852;28;20202;-80
2022/06/24 09:56:13;;;;;;;4.20;2.55;;;;;;;24.01;61.44;64483.72;5037125;28;20221;-81
2022/06/24 09:58:42;;;;;;;2.80;1.98;;;;;;;23.93;59.50;64477.94;5049233;28;20208;-80
2022/06/24 10:01:08;;;;;;;1.85;1.75;;;;;;;23.61;56.75;64447.56;5047541;28;20229;-79
2022/06/24 10:03:37;;;;;;;2.40;2.30;;;;;;;23.77;58.10;64458.59;5048081;28;20399;-80
2022/06/24 10:06:09;;;;;;;2.35;2.25;;;;;;;24.30;59.34;64514.06;5044616;28;20312;-81
2022/06/24 10:08:36;;;;;;;4.30;2.75;;;;;;;24.43;57.31;64524.56;5046573;28;20205;-79
2022/06/24 10:11:09;;;;;;;2.55;2.45;;;;;;;24.08;58.20;64495.72;5045023;28;20220;-80
2022/06/24 10:13:37;;;;;;;3.05;2.85;;;;;;;24.30;57.72;64511.47;5053593;28;20178;-81
2022/06/24 10:16:05;;;;;;;5.63;2.67;;;;;;;24.67;55.36;64552.28;5053311;28;20225;-80
2022/06/24 10:18:35;;;;;;;3.55;2.22;;;;;;;24.56;52.40;64540.78;5052140;28;20211;-79
2022/06/24 10:21:06;;;;;;;2.75;2.25;;;;;;;24.84;51.70;64570.13;5039935;28;20410;-81
2022/06/24 10:23:40;;;;;;;2.33;2.05;;;;;;;24.78;50.31;64569.06;5042371;28;20205;-80
2022/06/24 10:26:16;;;;;;;2.03;1.83;;;;;;;24.07;52.01;64495.22;5048431;28;20243;-82
2022/06/24 10:29:21;;;;;;;2.22;1.75;;;;;;;24.67;54.86;64554.91;5049849;28;20204;-80
2022/06/24 10:32:05;;;;;;;2.22;1.90;;;;;;;24.69;51.25;64552.34;5042132;28;20212;-80
2022/06/24 10:34:43;;;;;;;1.42;1.42;;;;;;;24.28;52.32;64514.06;5048166;28;20225;-80
2022/06/24 10:37:29;;;;;;;1.90;1.70;;;;;;;24.32;51.94;64518.25;5039538;28;20198;-81
2022/06/24 10:39:58;;;;;;;3.25;1.90;;;;;;;24.38;50.83;64525.06;5035296;28;20249;-82
2022/06/24 10:42:26;;;;;;;2.13;1.85;;;;;;;24.52;49.20;64537.09;5046064;28;20201;-81
2022/06/24 10:44:59;;;;;;;1.98;1.88;;;;;;;24.46;50.20;64527.69;5045895;28;20218;-81
2022/06/24 10:47:31;;;;;;;2.38;2.28;;;;;;;24.61;49.81;64549.13;5046236;28;20217;-79
2022/06/24 10:50:18;;;;;;;1.80;1.70;;;;;;;24.42;49.88;64529.25;5048127;28;20522;-80
2022/06/24 10:53:00;;;;;;;4.10;1.85;;;;;;;24.49;48.68;64533.97;5037733;28;20262;-79
2022/06/24 10:55:41;;;;;;;2.20;2.08;;;;;;;24.47;47.65;64531.88;5049289;28;20221;-80
2022/06/24 10:58:13;;;;;;;1.83;1.70;;;;;;;24.88;45.88;64571.69;5043987;28;20190;-81
2022/06/24 11:00:54;;;;;;;1.55;1.50;;;;;;;24.99;45.97;64591.03;5029758;28;20214;-82
2022/06/24 11:03:36;;;;;;;1.98;1.85;;;;;;;24.97;48.86;64586.84;5029640;28;20433;-80
2022/06/24 11:06:03;;;;;;;3.60;2.17;;;;;;;25.05;48.00;64597.31;5029966;28;20243;-80
2022/06/24 11:08:37;;;;;;;1.60;1.50;;;;;;;25.40;45.57;64628.28;5034255;28;20268;-80
2022/06/24 11:11:05;;;;;;;4.43;2.58;;;;;;;25.63;45.42;64654.97;5029468;28;20218;-80
2022/06/24 11:13:32;;;;;;;2.10;1.95;;;;;;;25.64;43.73;64659.16;5028802;28;20194;-80
2022/06/24 11:16:00;;;;;;;1.52;1.42;;;;;;;25.29;42.22;64614.13;5027589;28;20214;-81
2022/06/24 11:18:29;;;;;;;1.70;1.60;;;;;;;25.25;40.48;64615.16;5053588;28;20216;-80
2022/06/24 11:20:59;;;;;;;1.95;1.45;;;;;;;25.50;41.13;64641.88;5069167;28;20216;-80
2022/06/24 11:23:28;;;;;;;2.92;2.22;;;;;;;25.58;40.95;64650.25;5067682;28;20193;-79
2022/06/24 11:26:01;;;;;;;1.73;1.63;;;;;;;25.82;39.37;64672.81;5052599;28;20237;-81
2022/06/24 11:28:29;;;;;;;1.95;1.77;;;;;;;26.10;39.07;64704.25;5030134;28;20186;-80
2022/06/24 11:31:13;;;;;;;2.70;1.77;;;;;;;26.19;40.79;64711.09;5029385;28;20256;-80
2022/06/24 11:33:40;;;;;;;2.10;2.00;;;;;;;25.64;44.23;64656.03;5030508;28;20193;-81
2022/06/24 11:36:09;;;;;;;2.25;1.70;;;;;;;25.81;43.48;64674.38;5046168;28;20217;-81
2022/06/24 11:38:49;;;;;;;2.28;2.17;;;;;;;26.10;42.71;64701.66;5042459;28;20206;-79
2022/06/24 11:41:24;;;;;;;2.50;2.30;;;;;;;26.51;42.74;64746.72;5050568;28;20223;-81
2022/06/24 11:43:51;;;;;;;5.72;2.00;;;;;;;26.70;44.29;64769.78;5044492;28;20510;-80
2022/06/24 11:46:18;;;;;;;2.40;2.20;;;;;;;26.70;43.48;64764.03;5038414;28;20236;-80